createdAt,value
2022-09-14T00:03:04.373Z,13.17
2022-09-14T00:06:11.144Z,13.16
2022-09-14T00:09:16.325Z,13.12
2022-09-14T00:12:22.005Z,13.14
2022-09-14T00:15:31.985Z,13.11
2022-09-14T00:18:37.943Z,13.10
2022-09-14T00:21:43.668Z,13.10
2022-09-14T00:24:49.221Z,13.09
2022-09-14T00:27:55.179Z,13.12
2022-09-14T00:31:00.532Z,13.16
2022-09-14T00:34:06.087Z,13.19
2022-09-14T00:37:11.833Z,13.24
2022-09-14T00:40:18.382Z,13.25
2022-09-14T00:43:24.123Z,13.27
2022-09-14T00:46:32.296Z,13.26
2022-09-14T00:49:58.212Z,13.25
2022-09-14T00:53:06.882Z,13.22
2022-09-14T00:56:14.455Z,13.22
2022-09-14T00:59:20.094Z,13.21
2022-09-14T01:05:50.061Z,13.20
2022-09-14T01:08:56.014Z,13.20
2022-09-14T01:12:01.368Z,13.22
2022-09-14T01:15:07.349Z,13.20
2022-09-14T01:18:14.113Z,13.22
2022-09-14T01:21:19.736Z,13.22
2022-09-14T01:24:31.069Z,13.23
2022-09-14T01:31:05.855Z,13.21
2022-09-14T01:34:12.762Z,13.16
2022-09-14T01:37:18.734Z,13.13
2022-09-14T01:40:24.456Z,13.10
2022-09-14T01:43:30.391Z,13.04
2022-09-14T01:46:36.859Z,12.98
2022-09-14T01:49:42.628Z,12.91
2022-09-14T01:52:48.421Z,12.83
2022-09-14T01:55:54.076Z,12.78
2022-09-14T01:58:59.461Z,12.74
2022-09-14T02:02:06.282Z,12.69
2022-09-14T02:05:11.790Z,12.62
2022-09-14T02:08:19.376Z,12.53
2022-09-14T02:11:30.802Z,12.47
2022-09-14T02:14:36.187Z,12.42
2022-09-14T02:17:41.620Z,12.38
2022-09-14T02:20:46.990Z,12.34
2022-09-14T02:23:52.669Z,12.30
2022-09-14T02:26:58.691Z,12.27
2022-09-14T02:30:04.266Z,12.24
2022-09-14T02:33:10.177Z,12.22
2022-09-14T02:36:15.654Z,12.20
2022-09-14T02:39:22.520Z,12.16
2022-09-14T02:42:28.768Z,12.12
2022-09-14T02:45:36.055Z,12.10
2022-09-14T02:48:42.192Z,12.07
2022-09-14T02:51:48.690Z,12.04
2022-09-14T02:54:54.510Z,12.01
2022-09-14T02:58:00.388Z,11.98
2022-09-14T03:01:07.048Z,11.98
2022-09-14T03:04:13.029Z,11.97
2022-09-14T03:07:18.920Z,11.99
2022-09-14T03:10:24.558Z,12.00
2022-09-14T03:13:30.174Z,12.04
2022-09-14T03:16:35.387Z,12.10
2022-09-14T03:19:41.632Z,12.13
2022-09-14T03:22:47.112Z,12.16
2022-09-14T03:25:53.888Z,12.17
2022-09-14T03:28:59.209Z,12.18
2022-09-14T03:32:05.167Z,12.15
2022-09-14T03:35:11.085Z,12.11
2022-09-14T03:38:16.853Z,12.09
2022-09-14T03:41:22.917Z,12.05
2022-09-14T03:44:30.582Z,12.01
2022-09-14T03:47:36.210Z,11.97
2022-09-14T03:50:42.092Z,11.93
2022-09-14T03:53:47.952Z,11.89
2022-09-14T03:56:54.107Z,11.88
2022-09-14T04:00:00.009Z,11.87
2022-09-14T04:03:05.856Z,11.87
2022-09-14T04:06:12.595Z,11.89
2022-09-14T04:09:19.491Z,11.90
2022-09-14T04:12:24.828Z,11.96
2022-09-14T04:15:30.883Z,11.98
2022-09-14T04:18:36.811Z,11.97
2022-09-14T04:21:42.698Z,11.97
2022-09-14T04:24:48.977Z,11.99
2022-09-14T04:28:19.323Z,12.00
2022-09-14T04:31:23.841Z,11.98
2022-09-14T04:34:29.844Z,11.98
2022-09-14T04:37:36.670Z,11.99
2022-09-14T04:40:48.018Z,12.03
2022-09-14T04:43:53.933Z,12.05
2022-09-14T04:47:00.082Z,12.07
2022-09-14T04:50:06.008Z,12.13
2022-09-14T04:53:12.639Z,12.17
2022-09-14T04:56:18.502Z,12.23
2022-09-14T04:59:23.997Z,12.34
2022-09-14T05:02:31.130Z,12.41
2022-09-14T05:05:40.042Z,12.46
2022-09-14T05:08:50.112Z,12.53
2022-09-14T05:11:55.866Z,12.63
2022-09-14T05:15:01.581Z,12.74
2022-09-14T05:18:06.931Z,12.77
2022-09-14T05:21:12.481Z,12.83
2022-09-14T05:24:18.488Z,12.96
2022-09-14T05:27:24.761Z,13.01
2022-09-14T05:30:30.406Z,13.05
2022-09-14T05:33:37.947Z,13.04
2022-09-14T05:36:43.451Z,13.14
2022-09-14T05:39:49.734Z,13.20
2022-09-14T05:42:55.424Z,13.20
2022-09-14T05:46:01.173Z,13.22
2022-09-14T05:49:08.082Z,13.35
2022-09-14T05:52:13.428Z,13.46
2022-09-14T05:55:19.579Z,13.49
2022-09-14T05:58:25.031Z,13.57
2022-09-14T06:01:31.152Z,13.66
2022-09-14T06:04:37.326Z,13.73
2022-09-14T06:07:43.289Z,13.83
2022-09-14T06:10:49.658Z,13.92
2022-09-14T06:13:55.360Z,14.08
2022-09-14T06:17:00.912Z,14.04
2022-09-14T06:20:06.813Z,14.03
2022-09-14T06:23:12.679Z,13.99
2022-09-14T06:26:18.902Z,13.94
2022-09-14T06:29:38.472Z,13.94
2022-09-14T06:32:44.442Z,13.94
2022-09-14T06:35:50.293Z,13.96
2022-09-14T06:38:55.841Z,13.99
2022-09-14T06:42:01.861Z,14.07
2022-09-14T06:45:08.651Z,14.08
2022-09-14T06:48:14.282Z,14.12
2022-09-14T06:51:42.820Z,14.32
2022-09-14T06:54:49.418Z,14.41
2022-09-14T06:57:55.123Z,14.47
2022-09-14T07:01:01.453Z,14.56
2022-09-14T07:04:07.081Z,14.65
2022-09-14T07:07:13.366Z,14.75
2022-09-14T07:10:18.913Z,14.65
2022-09-14T07:13:24.766Z,14.52
2022-09-14T07:16:30.365Z,14.44
2022-09-14T07:19:36.276Z,14.45
2022-09-14T07:26:01.511Z,14.63
2022-09-14T07:29:07.069Z,14.70
2022-09-14T07:32:12.510Z,14.78
2022-09-14T07:35:18.170Z,14.93
2022-09-14T07:38:48.560Z,15.02
2022-09-14T07:41:55.048Z,15.05
2022-09-14T07:45:04.721Z,15.07
2022-09-14T07:48:11.416Z,15.34
2022-09-14T07:51:17.895Z,15.59
2022-09-14T07:54:30.968Z,15.92
2022-09-14T07:57:55.154Z,16.06
2022-09-14T08:01:02.803Z,16.15
2022-09-14T08:07:34.786Z,15.99
2022-09-14T08:10:40.560Z,15.98
2022-09-14T08:13:46.190Z,16.03
2022-09-14T08:16:52.424Z,16.07
2022-09-14T08:19:58.167Z,16.12
2022-09-14T08:23:03.733Z,16.11
2022-09-14T08:26:09.220Z,16.11
2022-09-14T08:29:15.295Z,16.14
2022-09-14T08:32:21.735Z,16.20
2022-09-14T08:35:53.612Z,16.38
2022-09-14T08:38:54.927Z,16.53
2022-09-14T08:42:02.609Z,16.64
2022-09-14T08:45:13.682Z,16.72
2022-09-14T08:48:19.976Z,16.69
2022-09-14T08:51:26.864Z,16.77
2022-09-14T08:54:32.975Z,16.78
2022-09-14T08:57:38.448Z,16.70
2022-09-14T09:00:43.970Z,16.67
2022-09-14T09:03:50.077Z,16.59
2022-09-14T09:06:58.235Z,16.52
2022-09-14T09:10:06.277Z,16.61
2022-09-14T09:13:12.272Z,16.55
2022-09-14T09:16:18.303Z,16.78
2022-09-14T09:19:28.434Z,16.96
2022-09-14T09:22:34.289Z,17.09
2022-09-14T09:26:00.997Z,17.18
2022-09-14T09:29:07.391Z,17.36
2022-09-14T09:32:13.135Z,17.26
2022-09-14T09:35:19.022Z,17.21
2022-09-14T09:38:25.107Z,17.43
2022-09-14T09:41:31.021Z,17.58
2022-09-14T09:44:36.353Z,17.60
2022-09-14T09:47:42.117Z,17.87
2022-09-14T09:50:48.795Z,18.03
2022-09-14T09:53:54.405Z,18.24
2022-09-14T09:57:00.935Z,18.39
2022-09-14T10:00:06.383Z,18.38
2022-09-14T10:03:12.001Z,18.35
2022-09-14T10:06:18.318Z,18.36
2022-09-14T10:09:30.796Z,18.17
2022-09-14T10:12:53.959Z,17.93
2022-09-14T10:15:59.643Z,17.54
2022-09-14T10:19:05.639Z,17.36
2022-09-14T10:22:16.660Z,17.23
2022-09-14T10:25:23.545Z,17.35
2022-09-14T10:28:36.245Z,17.46
2022-09-14T10:31:42.360Z,17.74
2022-09-14T10:34:48.096Z,17.99
2022-09-14T10:37:54.404Z,18.30
2022-09-14T10:41:00.014Z,18.60
2022-09-14T10:44:05.685Z,18.73
2022-09-14T10:47:14.312Z,18.82
2022-09-14T10:50:20.519Z,18.69
2022-09-14T10:53:26.650Z,18.52
2022-09-14T10:56:32.259Z,18.37
2022-09-14T10:59:41.357Z,18.30
2022-09-14T11:02:47.012Z,18.24
2022-09-14T11:05:52.701Z,18.09
2022-09-14T11:08:59.210Z,17.94
2022-09-14T11:12:07.970Z,17.71
2022-09-14T11:15:13.631Z,17.60
2022-09-14T11:18:18.831Z,17.51
2022-09-14T11:21:24.070Z,17.44
2022-09-14T11:24:30.075Z,17.52
2022-09-14T11:27:35.986Z,17.62
2022-09-14T11:30:42.360Z,17.72
2022-09-14T11:33:48.053Z,18.03
2022-09-14T11:36:54.741Z,18.38
2022-09-14T11:40:00.980Z,18.63
2022-09-14T11:43:08.170Z,18.59
2022-09-14T11:46:19.920Z,18.36
2022-09-14T11:49:25.494Z,18.18
2022-09-14T11:52:30.960Z,18.05
2022-09-14T11:55:37.060Z,18.03
2022-09-14T11:58:42.890Z,17.99
2022-09-14T12:01:49.151Z,17.89
2022-09-14T12:04:54.668Z,17.82
2022-09-14T12:08:00.052Z,17.74
2022-09-14T12:11:06.473Z,17.71
2022-09-14T12:14:12.591Z,17.79
2022-09-14T12:20:44.414Z,18.01
2022-09-14T12:23:52.494Z,18.23
2022-09-14T12:26:59.312Z,18.12
2022-09-14T12:30:05.708Z,17.96
2022-09-14T12:33:11.767Z,17.82
2022-09-14T12:36:17.445Z,17.78
2022-09-14T12:39:23.450Z,17.89
2022-09-14T12:42:29.911Z,17.87
2022-09-14T12:45:35.913Z,17.88
2022-09-14T12:48:41.426Z,17.95
2022-09-14T12:51:46.805Z,18.08
2022-09-14T12:54:51.988Z,18.22
2022-09-14T12:57:58.473Z,18.46
2022-09-14T13:01:04.750Z,18.56
2022-09-14T13:04:11.002Z,18.63
2022-09-14T13:07:16.700Z,18.78
2022-09-14T13:10:22.141Z,18.98
2022-09-14T13:13:28.691Z,19.21
2022-09-14T13:16:34.334Z,19.49
2022-09-14T13:19:39.867Z,19.72
2022-09-14T13:22:45.244Z,19.92
2022-09-14T13:25:50.753Z,19.90
2022-09-14T13:28:57.242Z,19.66
2022-09-14T13:32:04.091Z,19.37
2022-09-14T13:35:10.325Z,19.20
2022-09-14T13:38:15.947Z,19.01
2022-09-14T13:41:23.012Z,18.89
2022-09-14T13:44:29.119Z,18.73
2022-09-14T13:47:36.355Z,18.70
2022-09-14T13:50:42.530Z,18.68
2022-09-14T13:53:49.189Z,18.70
2022-09-14T13:56:54.620Z,18.78
2022-09-14T14:00:00.532Z,18.94
2022-09-14T14:03:06.346Z,19.02
2022-09-14T14:06:12.623Z,19.10
2022-09-14T14:09:18.031Z,19.10
2022-09-14T14:12:24.050Z,19.05
2022-09-14T14:15:29.910Z,19.11
2022-09-14T14:18:35.878Z,19.21
2022-09-14T14:21:44.041Z,19.16
2022-09-14T14:28:13.864Z,19.11
2022-09-14T14:31:20.685Z,18.99
2022-09-14T14:34:29.012Z,19.00
2022-09-14T14:37:35.994Z,18.93
2022-09-14T14:40:41.496Z,18.81
2022-09-14T14:43:47.160Z,18.74
2022-09-14T14:46:53.118Z,18.69
2022-09-14T14:49:59.643Z,18.71
2022-09-14T14:53:05.663Z,18.71
2022-09-14T14:56:11.049Z,18.72
2022-09-14T14:59:17.523Z,18.79
2022-09-14T15:02:23.764Z,18.89
2022-09-14T15:05:31.354Z,19.03
2022-09-14T15:08:55.028Z,19.19
2022-09-14T15:12:01.110Z,19.37
2022-09-14T15:15:07.043Z,19.38
2022-09-14T15:18:16.081Z,19.27
2022-09-14T15:21:22.386Z,19.08
2022-09-14T15:24:32.957Z,18.95
2022-09-14T15:27:38.744Z,18.84
2022-09-14T15:30:44.397Z,18.72
2022-09-14T15:33:50.227Z,18.64
2022-09-14T15:40:22.064Z,18.45
2022-09-14T15:43:29.537Z,18.38
2022-09-14T15:46:35.122Z,18.31
2022-09-14T15:49:41.048Z,18.25
2022-09-14T15:52:46.812Z,18.14
2022-09-14T15:55:55.819Z,18.08
2022-09-14T15:59:01.825Z,18.01
2022-09-14T16:02:07.007Z,17.99
2022-09-14T16:05:18.265Z,18.01
2022-09-14T16:08:24.463Z,18.00
2022-09-14T16:11:33.314Z,17.94
2022-09-14T16:14:38.504Z,17.85
2022-09-14T16:17:43.756Z,17.73
2022-09-14T16:20:50.224Z,17.65
2022-09-14T16:23:56.393Z,17.56
2022-09-14T16:27:02.934Z,17.49
2022-09-14T16:30:08.631Z,17.39
2022-09-14T16:33:14.471Z,17.34
2022-09-14T16:36:21.396Z,17.31
2022-09-14T16:39:30.432Z,17.20
2022-09-14T16:42:52.027Z,17.09
2022-09-14T16:45:58.693Z,16.97
2022-09-14T16:49:05.760Z,16.90
2022-09-14T16:52:11.555Z,16.88
2022-09-14T16:55:17.469Z,16.87
2022-09-14T16:58:31.055Z,16.83
2022-09-14T17:01:37.895Z,16.80
2022-09-14T17:04:55.827Z,16.70
2022-09-14T17:08:10.739Z,16.60
2022-09-14T17:11:16.228Z,16.38
2022-09-14T17:14:23.867Z,16.12
2022-09-14T17:17:29.613Z,15.97
2022-09-14T17:20:35.727Z,15.88
2022-09-14T17:23:42.119Z,15.74
2022-09-14T17:26:47.949Z,15.60
2022-09-14T17:30:16.524Z,15.51
2022-09-14T17:33:22.137Z,15.40
2022-09-14T17:36:27.981Z,15.29
2022-09-14T17:39:33.746Z,15.19
2022-09-14T17:42:42.073Z,15.11
2022-09-14T17:49:17.829Z,14.85
2022-09-14T17:52:23.648Z,14.63
2022-09-14T17:55:30.499Z,14.43
2022-09-14T17:58:36.908Z,14.27
2022-09-14T18:02:02.483Z,14.15
2022-09-14T18:05:10.333Z,14.03
2022-09-14T18:08:16.705Z,13.96
2022-09-14T18:11:22.640Z,13.95
2022-09-14T18:14:27.995Z,13.95
2022-09-14T18:17:33.201Z,13.96
2022-09-14T18:20:38.621Z,13.93
2022-09-14T18:23:44.475Z,13.91
2022-09-14T18:26:50.512Z,13.84
2022-09-14T18:29:56.498Z,13.79
2022-09-14T18:33:03.524Z,13.73
2022-09-14T18:36:09.091Z,13.67
2022-09-14T18:39:17.536Z,13.61
2022-09-14T18:42:24.184Z,13.56
2022-09-14T18:45:31.097Z,13.52
2022-09-14T18:48:37.612Z,13.49
2022-09-14T18:51:49.703Z,13.48
2022-09-14T18:54:56.086Z,13.47
2022-09-14T18:58:01.735Z,13.49
2022-09-14T19:01:07.321Z,13.50
2022-09-14T19:04:16.028Z,13.56
2022-09-14T19:07:21.788Z,13.62
2022-09-14T19:10:27.171Z,13.67
2022-09-14T19:13:32.735Z,13.71
2022-09-14T19:16:39.322Z,13.73
2022-09-14T19:19:58.955Z,13.78
2022-09-14T19:23:05.045Z,13.81
2022-09-14T19:26:11.678Z,13.80
2022-09-14T19:29:17.738Z,13.80
2022-09-14T19:32:23.863Z,13.78
2022-09-14T19:35:33.152Z,13.73
2022-09-14T19:38:38.713Z,13.76
2022-09-14T19:41:44.403Z,13.78
2022-09-14T19:44:50.397Z,13.80
2022-09-14T19:47:55.630Z,13.83
2022-09-14T19:51:03.374Z,13.86
2022-09-14T19:54:10.912Z,13.87
2022-09-14T19:57:16.579Z,13.86
2022-09-14T20:00:22.840Z,13.86
2022-09-14T20:03:28.317Z,13.87
2022-09-14T20:06:34.748Z,13.85
2022-09-14T20:09:41.231Z,13.87
2022-09-14T20:12:47.243Z,13.85
2022-09-14T20:15:53.313Z,13.82
2022-09-14T20:22:37.141Z,13.74
2022-09-14T20:25:43.416Z,13.67
2022-09-14T20:28:48.727Z,13.66
2022-09-14T20:31:54.856Z,13.62
2022-09-14T20:35:00.972Z,13.60
2022-09-14T20:38:07.283Z,13.54
2022-09-14T20:41:12.572Z,13.51
2022-09-14T20:44:22.781Z,13.51
2022-09-14T20:47:28.944Z,13.50
2022-09-14T20:50:35.641Z,13.49
2022-09-14T20:53:41.455Z,13.46
2022-09-14T20:56:48.127Z,13.45
2022-09-14T20:59:53.890Z,13.39
2022-09-14T21:02:59.974Z,13.35
2022-09-14T21:06:05.674Z,13.28
2022-09-14T21:09:11.665Z,13.27
2022-09-14T21:12:17.375Z,13.26
2022-09-14T21:15:22.869Z,13.22
2022-09-14T21:18:28.859Z,13.21
2022-09-14T21:21:34.456Z,13.16
2022-09-14T21:24:39.946Z,13.12
2022-09-14T21:27:45.492Z,13.09
2022-09-14T21:30:51.666Z,13.05
2022-09-14T21:33:58.792Z,13.04
2022-09-14T21:37:04.209Z,13.03
2022-09-14T21:40:09.585Z,12.98
2022-09-14T21:43:15.088Z,12.98
2022-09-14T21:46:20.486Z,12.96
2022-09-14T21:49:26.570Z,12.96
2022-09-14T21:52:32.625Z,12.97
2022-09-14T21:55:38.220Z,13.00
2022-09-14T21:58:44.210Z,12.99
2022-09-14T22:01:49.972Z,13.01
2022-09-14T22:04:56.276Z,13.03
2022-09-14T22:08:02.392Z,13.04
2022-09-14T22:11:08.248Z,13.06
2022-09-14T22:14:14.691Z,13.07
2022-09-14T22:17:20.162Z,13.07
2022-09-14T22:20:28.356Z,13.08
2022-09-14T22:23:33.931Z,13.09
2022-09-14T22:26:40.280Z,13.11
2022-09-14T22:29:45.689Z,13.14
2022-09-14T22:32:51.358Z,13.16
2022-09-14T22:35:57.276Z,13.22
2022-09-14T22:39:03.381Z,13.28
2022-09-14T22:42:09.044Z,13.29
2022-09-14T22:45:14.268Z,13.30
2022-09-14T22:48:19.884Z,13.30
2022-09-14T22:51:25.804Z,13.34
2022-09-14T22:54:31.672Z,13.37
2022-09-14T22:57:38.222Z,13.39
2022-09-14T23:00:43.934Z,13.42
2022-09-14T23:03:53.196Z,13.42
2022-09-14T23:07:03.502Z,13.46
2022-09-14T23:10:10.013Z,13.50
2022-09-14T23:13:15.709Z,13.53
2022-09-14T23:16:21.051Z,13.56
2022-09-14T23:19:28.026Z,13.56
2022-09-14T23:22:34.296Z,13.55
2022-09-14T23:25:40.713Z,13.53
2022-09-14T23:28:49.808Z,13.54
2022-09-14T23:31:56.465Z,13.52
2022-09-14T23:35:02.078Z,13.50
2022-09-14T23:38:07.758Z,13.47
2022-09-14T23:41:13.132Z,13.38
2022-09-14T23:44:18.665Z,13.32
2022-09-14T23:47:25.210Z,13.24
2022-09-14T23:50:31.700Z,13.16
2022-09-14T23:53:37.535Z,13.05
2022-09-14T23:56:44.149Z,12.97
2022-09-14T23:59:50.354Z,12.90
